sensor_id;sensor_type;location;lat;lon;timestamp;P1;durP1;ratioP1;P2;durP2;ratioP2
34317;SDS011;20582;52.196;20.952;2024-01-06T00:01:43;24.08;;;9.90;;
34317;SDS011;20582;52.196;20.952;2024-01-06T00:04:09;25.42;;;10.18;;
34317;SDS011;20582;52.196;20.952;2024-01-06T00:06:35;23.02;;;10.27;;
34317;SDS011;20582;52.196;20.952;2024-01-06T00:09:01;26.15;;;10.98;;
34317;SDS011;20582;52.196;20.952;2024-01-06T00:11:27;22.77;;;10.38;;
34317;SDS011;20582;52.196;20.952;2024-01-06T00:13:53;20.88;;;9.68;;
34317;SDS011;20582;52.196;20.952;2024-01-06T00:16:19;27.42;;;11.40;;
34317;SDS011;20582;52.196;20.952;2024-01-06T00:18:45;24.60;;;10.73;;
34317;SDS011;20582;52.196;20.952;2024-01-06T00:21:11;22.83;;;10.77;;
34317;SDS011;20582;52.196;20.952;2024-01-06T00:23:38;25.05;;;11.10;;
34317;SDS011;20582;52.196;20.952;2024-01-06T00:26:05;28.10;;;12.15;;
34317;SDS011;20582;52.196;20.952;2024-01-06T00:28:31;24.90;;;12.05;;
34317;SDS011;20582;52.196;20.952;2024-01-06T00:30:57;28.55;;;13.13;;
34317;SDS011;20582;52.196;20.952;2024-01-06T00:33:24;29.42;;;13.43;;
34317;SDS011;20582;52.196;20.952;2024-01-06T00:36:07;26.00;;;11.98;;
34317;SDS011;20582;52.196;20.952;2024-01-06T00:38:33;33.33;;;14.07;;
34317;SDS011;20582;52.196;20.952;2024-01-06T00:41:00;30.90;;;13.15;;
34317;SDS011;20582;52.196;20.952;2024-01-06T00:43:26;29.25;;;12.85;;
34317;SDS011;20582;52.196;20.952;2024-01-06T00:45:52;28.65;;;12.95;;
34317;SDS011;20582;52.196;20.952;2024-01-06T00:48:17;33.30;;;13.70;;
34317;SDS011;20582;52.196;20.952;2024-01-06T00:50:44;28.38;;;13.30;;
34317;SDS011;20582;52.196;20.952;2024-01-06T00:53:10;31.10;;;13.93;;
34317;SDS011;20582;52.196;20.952;2024-01-06T00:55:36;29.13;;;13.48;;
34317;SDS011;20582;52.196;20.952;2024-01-06T00:58:02;32.53;;;13.63;;
34317;SDS011;20582;52.196;20.952;2024-01-06T01:00:28;29.02;;;12.95;;
34317;SDS011;20582;52.196;20.952;2024-01-06T01:02:54;28.92;;;11.35;;
34317;SDS011;20582;52.196;20.952;2024-01-06T01:05:20;30.48;;;12.43;;
34317;SDS011;20582;52.196;20.952;2024-01-06T01:07:46;24.73;;;11.32;;
34317;SDS011;20582;52.196;20.952;2024-01-06T01:10:12;28.50;;;12.02;;
34317;SDS011;20582;52.196;20.952;2024-01-06T01:12:38;30.33;;;13.25;;
34317;SDS011;20582;52.196;20.952;2024-01-06T01:15:04;30.20;;;12.30;;
34317;SDS011;20582;52.196;20.952;2024-01-06T01:17:30;29.23;;;12.80;;
34317;SDS011;20582;52.196;20.952;2024-01-06T01:19:56;28.17;;;12.50;;
34317;SDS011;20582;52.196;20.952;2024-01-06T01:22:22;31.10;;;12.63;;
34317;SDS011;20582;52.196;20.952;2024-01-06T01:24:48;28.63;;;12.13;;
34317;SDS011;20582;52.196;20.952;2024-01-06T01:27:14;27.88;;;12.32;;
34317;SDS011;20582;52.196;20.952;2024-01-06T01:29:40;28.48;;;13.15;;
34317;SDS011;20582;52.196;20.952;2024-01-06T01:32:06;27.50;;;12.77;;
34317;SDS011;20582;52.196;20.952;2024-01-06T01:34:32;30.55;;;13.35;;
34317;SDS011;20582;52.196;20.952;2024-01-06T01:36:59;25.13;;;12.40;;
34317;SDS011;20582;52.196;20.952;2024-01-06T01:39:25;24.17;;;10.63;;
34317;SDS011;20582;52.196;20.952;2024-01-06T01:41:51;28.60;;;12.52;;
34317;SDS011;20582;52.196;20.952;2024-01-06T01:44:17;24.52;;;11.82;;
34317;SDS011;20582;52.196;20.952;2024-01-06T01:46:43;22.85;;;10.10;;
34317;SDS011;20582;52.196;20.952;2024-01-06T01:49:09;21.95;;;10.02;;
34317;SDS011;20582;52.196;20.952;2024-01-06T01:51:35;25.70;;;11.02;;
34317;SDS011;20582;52.196;20.952;2024-01-06T01:54:01;21.85;;;10.25;;
34317;SDS011;20582;52.196;20.952;2024-01-06T01:56:29;27.00;;;10.38;;
34317;SDS011;20582;52.196;20.952;2024-01-06T02:01:24;18.48;;;9.27;;
34317;SDS011;20582;52.196;20.952;2024-01-06T02:03:50;23.40;;;10.10;;
34317;SDS011;20582;52.196;20.952;2024-01-06T02:06:16;25.25;;;10.57;;
34317;SDS011;20582;52.196;20.952;2024-01-06T02:08:42;22.30;;;9.20;;
34317;SDS011;20582;52.196;20.952;2024-01-06T02:11:08;23.80;;;11.07;;
34317;SDS011;20582;52.196;20.952;2024-01-06T02:13:35;23.27;;;10.50;;
34317;SDS011;20582;52.196;20.952;2024-01-06T02:16:02;21.90;;;9.98;;
34317;SDS011;20582;52.196;20.952;2024-01-06T02:18:28;22.02;;;10.15;;
34317;SDS011;20582;52.196;20.952;2024-01-06T02:20:55;21.73;;;10.20;;
34317;SDS011;20582;52.196;20.952;2024-01-06T02:23:23;23.38;;;10.02;;
34317;SDS011;20582;52.196;20.952;2024-01-06T02:25:49;21.10;;;9.52;;
34317;SDS011;20582;52.196;20.952;2024-01-06T02:28:15;22.77;;;9.45;;
34317;SDS011;20582;52.196;20.952;2024-01-06T02:30:41;21.67;;;10.32;;
34317;SDS011;20582;52.196;20.952;2024-01-06T02:33:07;19.65;;;9.48;;
34317;SDS011;20582;52.196;20.952;2024-01-06T02:35:33;19.50;;;8.73;;
34317;SDS011;20582;52.196;20.952;2024-01-06T02:37:59;19.33;;;8.68;;
34317;SDS011;20582;52.196;20.952;2024-01-06T02:40:25;22.33;;;9.73;;
34317;SDS011;20582;52.196;20.952;2024-01-06T02:42:51;22.33;;;9.68;;
34317;SDS011;20582;52.196;20.952;2024-01-06T02:45:17;21.60;;;9.63;;
34317;SDS011;20582;52.196;20.952;2024-01-06T02:47:43;20.42;;;9.45;;
34317;SDS011;20582;52.196;20.952;2024-01-06T02:50:09;22.85;;;10.20;;
34317;SDS011;20582;52.196;20.952;2024-01-06T02:52:35;19.23;;;9.07;;
34317;SDS011;20582;52.196;20.952;2024-01-06T02:55:01;23.20;;;9.38;;
34317;SDS011;20582;52.196;20.952;2024-01-06T02:57:30;19.63;;;8.90;;
34317;SDS011;20582;52.196;20.952;2024-01-06T02:59:56;20.33;;;8.82;;
34317;SDS011;20582;52.196;20.952;2024-01-06T03:02:23;23.33;;;9.77;;
34317;SDS011;20582;52.196;20.952;2024-01-06T03:04:49;21.35;;;10.18;;
34317;SDS011;20582;52.196;20.952;2024-01-06T03:07:15;25.00;;;10.38;;
34317;SDS011;20582;52.196;20.952;2024-01-06T03:09:41;20.50;;;8.98;;
34317;SDS011;20582;52.196;20.952;2024-01-06T03:12:07;18.30;;;8.65;;
34317;SDS011;20582;52.196;20.952;2024-01-06T03:14:36;22.10;;;9.40;;
34317;SDS011;20582;52.196;20.952;2024-01-06T03:17:02;19.17;;;8.13;;
34317;SDS011;20582;52.196;20.952;2024-01-06T03:19:29;21.77;;;9.18;;
34317;SDS011;20582;52.196;20.952;2024-01-06T03:21:55;20.67;;;9.55;;
34317;SDS011;20582;52.196;20.952;2024-01-06T03:24:21;19.83;;;8.52;;
34317;SDS011;20582;52.196;20.952;2024-01-06T03:26:47;20.70;;;9.75;;
34317;SDS011;20582;52.196;20.952;2024-01-06T03:29:13;23.35;;;9.48;;
34317;SDS011;20582;52.196;20.952;2024-01-06T03:31:43;21.20;;;9.35;;
34317;SDS011;20582;52.196;20.952;2024-01-06T03:34:09;19.20;;;8.37;;
34317;SDS011;20582;52.196;20.952;2024-01-06T03:36:36;20.73;;;9.90;;
34317;SDS011;20582;52.196;20.952;2024-01-06T03:39:02;20.45;;;8.30;;
34317;SDS011;20582;52.196;20.952;2024-01-06T03:41:28;22.27;;;10.07;;
34317;SDS011;20582;52.196;20.952;2024-01-06T03:43:54;20.38;;;9.68;;
34317;SDS011;20582;52.196;20.952;2024-01-06T03:46:20;21.25;;;9.15;;
34317;SDS011;20582;52.196;20.952;2024-01-06T03:48:46;24.35;;;9.30;;
34317;SDS011;20582;52.196;20.952;2024-01-06T03:51:12;20.17;;;9.38;;
34317;SDS011;20582;52.196;20.952;2024-01-06T03:53:38;20.45;;;8.82;;
34317;SDS011;20582;52.196;20.952;2024-01-06T03:56:05;21.40;;;10.18;;
34317;SDS011;20582;52.196;20.952;2024-01-06T03:58:32;22.70;;;9.32;;
34317;SDS011;20582;52.196;20.952;2024-01-06T04:00:58;21.13;;;9.75;;
34317;SDS011;20582;52.196;20.952;2024-01-06T04:03:24;20.60;;;9.68;;
34317;SDS011;20582;52.196;20.952;2024-01-06T04:05:50;20.85;;;9.55;;
34317;SDS011;20582;52.196;20.952;2024-01-06T04:08:16;20.50;;;9.70;;
34317;SDS011;20582;52.196;20.952;2024-01-06T04:10:42;23.20;;;9.90;;
34317;SDS011;20582;52.196;20.952;2024-01-06T04:13:08;24.08;;;10.05;;
34317;SDS011;20582;52.196;20.952;2024-01-06T04:15:34;20.63;;;9.82;;
34317;SDS011;20582;52.196;20.952;2024-01-06T04:18:04;24.42;;;10.70;;
34317;SDS011;20582;52.196;20.952;2024-01-06T04:20:30;21.47;;;9.90;;
34317;SDS011;20582;52.196;20.952;2024-01-06T04:22:56;23.17;;;10.50;;
34317;SDS011;20582;52.196;20.952;2024-01-06T04:25:22;24.77;;;10.25;;
34317;SDS011;20582;52.196;20.952;2024-01-06T04:27:48;20.70;;;9.20;;
34317;SDS011;20582;52.196;20.952;2024-01-06T04:30:15;25.70;;;11.18;;
34317;SDS011;20582;52.196;20.952;2024-01-06T04:32:41;26.15;;;10.20;;
34317;SDS011;20582;52.196;20.952;2024-01-06T04:35:07;24.73;;;10.43;;
34317;SDS011;20582;52.196;20.952;2024-01-06T04:37:33;24.90;;;11.05;;
34317;SDS011;20582;52.196;20.952;2024-01-06T04:39:59;22.70;;;11.10;;
34317;SDS011;20582;52.196;20.952;2024-01-06T04:42:26;22.92;;;10.27;;
34317;SDS011;20582;52.196;20.952;2024-01-06T04:44:52;24.30;;;10.43;;
34317;SDS011;20582;52.196;20.952;2024-01-06T04:47:18;23.42;;;10.38;;
34317;SDS011;20582;52.196;20.952;2024-01-06T04:49:44;25.90;;;11.23;;
34317;SDS011;20582;52.196;20.952;2024-01-06T04:52:10;25.58;;;10.95;;
34317;SDS011;20582;52.196;20.952;2024-01-06T04:54:36;21.30;;;10.60;;
34317;SDS011;20582;52.196;20.952;2024-01-06T04:57:02;24.35;;;10.68;;
34317;SDS011;20582;52.196;20.952;2024-01-06T04:59:29;24.38;;;11.38;;
34317;SDS011;20582;52.196;20.952;2024-01-06T05:01:55;27.15;;;11.18;;
34317;SDS011;20582;52.196;20.952;2024-01-06T05:04:24;28.00;;;11.90;;
34317;SDS011;20582;52.196;20.952;2024-01-06T05:06:53;27.83;;;11.52;;
34317;SDS011;20582;52.196;20.952;2024-01-06T05:09:19;23.83;;;10.95;;
34317;SDS011;20582;52.196;20.952;2024-01-06T05:11:46;26.65;;;11.38;;
34317;SDS011;20582;52.196;20.952;2024-01-06T05:14:12;28.52;;;11.73;;
34317;SDS011;20582;52.196;20.952;2024-01-06T05:16:38;29.35;;;11.65;;
34317;SDS011;20582;52.196;20.952;2024-01-06T05:19:04;27.15;;;11.70;;
34317;SDS011;20582;52.196;20.952;2024-01-06T05:21:30;25.60;;;11.00;;
34317;SDS011;20582;52.196;20.952;2024-01-06T05:23:56;22.17;;;9.63;;
34317;SDS011;20582;52.196;20.952;2024-01-06T05:26:22;22.13;;;10.88;;
34317;SDS011;20582;52.196;20.952;2024-01-06T05:28:48;22.05;;;10.38;;
34317;SDS011;20582;52.196;20.952;2024-01-06T05:31:14;25.45;;;10.43;;
34317;SDS011;20582;52.196;20.952;2024-01-06T05:33:40;28.13;;;10.77;;
34317;SDS011;20582;52.196;20.952;2024-01-06T05:36:07;21.92;;;9.68;;
34317;SDS011;20582;52.196;20.952;2024-01-06T05:38:33;24.27;;;10.48;;
34317;SDS011;20582;52.196;20.952;2024-01-06T05:40:59;20.70;;;9.00;;
34317;SDS011;20582;52.196;20.952;2024-01-06T05:43:25;19.40;;;9.10;;
34317;SDS011;20582;52.196;20.952;2024-01-06T05:45:51;20.00;;;9.75;;
34317;SDS011;20582;52.196;20.952;2024-01-06T05:48:17;23.65;;;10.05;;
34317;SDS011;20582;52.196;20.952;2024-01-06T05:50:43;21.83;;;10.15;;
34317;SDS011;20582;52.196;20.952;2024-01-06T05:53:09;23.73;;;10.30;;
34317;SDS011;20582;52.196;20.952;2024-01-06T05:55:36;20.90;;;9.70;;
34317;SDS011;20582;52.196;20.952;2024-01-06T05:58:02;20.27;;;9.75;;
34317;SDS011;20582;52.196;20.952;2024-01-06T06:00:28;19.65;;;9.35;;
34317;SDS011;20582;52.196;20.952;2024-01-06T06:02:56;20.50;;;9.80;;
34317;SDS011;20582;52.196;20.952;2024-01-06T06:05:22;22.00;;;9.85;;
34317;SDS011;20582;52.196;20.952;2024-01-06T06:07:48;23.58;;;10.35;;
34317;SDS011;20582;52.196;20.952;2024-01-06T06:10:14;21.58;;;9.40;;
34317;SDS011;20582;52.196;20.952;2024-01-06T06:12:54;22.60;;;9.15;;
34317;SDS011;20582;52.196;20.952;2024-01-06T06:15:20;22.05;;;10.02;;
34317;SDS011;20582;52.196;20.952;2024-01-06T06:17:46;23.75;;;10.20;;
34317;SDS011;20582;52.196;20.952;2024-01-06T06:20:12;21.48;;;10.20;;
34317;SDS011;20582;52.196;20.952;2024-01-06T06:22:39;22.42;;;10.00;;
34317;SDS011;20582;52.196;20.952;2024-01-06T06:25:05;24.00;;;9.55;;
34317;SDS011;20582;52.196;20.952;2024-01-06T06:27:31;17.77;;;8.35;;
34317;SDS011;20582;52.196;20.952;2024-01-06T06:29:57;22.75;;;10.40;;
34317;SDS011;20582;52.196;20.952;2024-01-06T06:32:23;21.48;;;10.00;;
34317;SDS011;20582;52.196;20.952;2024-01-06T06:34:50;21.65;;;10.32;;
34317;SDS011;20582;52.196;20.952;2024-01-06T06:37:16;23.50;;;9.82;;
34317;SDS011;20582;52.196;20.952;2024-01-06T06:39:42;23.95;;;10.15;;
34317;SDS011;20582;52.196;20.952;2024-01-06T06:42:09;24.27;;;11.07;;
34317;SDS011;20582;52.196;20.952;2024-01-06T06:44:35;19.88;;;9.05;;
34317;SDS011;20582;52.196;20.952;2024-01-06T06:47:02;23.67;;;10.73;;
34317;SDS011;20582;52.196;20.952;2024-01-06T06:49:28;20.85;;;10.18;;
34317;SDS011;20582;52.196;20.952;2024-01-06T06:51:54;21.88;;;10.65;;
34317;SDS011;20582;52.196;20.952;2024-01-06T06:54:21;24.33;;;10.38;;
34317;SDS011;20582;52.196;20.952;2024-01-06T06:56:47;23.02;;;11.18;;
34317;SDS011;20582;52.196;20.952;2024-01-06T06:59:13;25.77;;;10.30;;
34317;SDS011;20582;52.196;20.952;2024-01-06T07:01:39;23.27;;;10.82;;
34317;SDS011;20582;52.196;20.952;2024-01-06T07:04:05;22.75;;;11.73;;
34317;SDS011;20582;52.196;20.952;2024-01-06T07:06:31;28.05;;;11.00;;
34317;SDS011;20582;52.196;20.952;2024-01-06T07:08:57;24.58;;;11.05;;
34317;SDS011;20582;52.196;20.952;2024-01-06T07:11:23;25.55;;;10.15;;
34317;SDS011;20582;52.196;20.952;2024-01-06T07:13:49;21.23;;;9.95;;
34317;SDS011;20582;52.196;20.952;2024-01-06T07:16:15;26.40;;;10.23;;
34317;SDS011;20582;52.196;20.952;2024-01-06T07:18:41;27.60;;;11.13;;
34317;SDS011;20582;52.196;20.952;2024-01-06T07:21:07;25.45;;;12.27;;
34317;SDS011;20582;52.196;20.952;2024-01-06T07:23:34;23.52;;;10.10;;
34317;SDS011;20582;52.196;20.952;2024-01-06T07:26:00;22.83;;;9.85;;
34317;SDS011;20582;52.196;20.952;2024-01-06T07:28:26;21.13;;;9.63;;
34317;SDS011;20582;52.196;20.952;2024-01-06T07:30:52;23.38;;;11.27;;
34317;SDS011;20582;52.196;20.952;2024-01-06T07:33:19;23.50;;;11.32;;
34317;SDS011;20582;52.196;20.952;2024-01-06T07:35:46;23.40;;;11.35;;
34317;SDS011;20582;52.196;20.952;2024-01-06T07:38:12;26.70;;;11.45;;
34317;SDS011;20582;52.196;20.952;2024-01-06T07:40:38;23.60;;;10.95;;
34317;SDS011;20582;52.196;20.952;2024-01-06T07:43:04;25.55;;;11.48;;
34317;SDS011;20582;52.196;20.952;2024-01-06T07:45:31;22.42;;;10.82;;
34317;SDS011;20582;52.196;20.952;2024-01-06T07:47:57;25.65;;;11.48;;
34317;SDS011;20582;52.196;20.952;2024-01-06T07:50:23;24.42;;;11.00;;
34317;SDS011;20582;52.196;20.952;2024-01-06T07:52:49;25.95;;;11.93;;
34317;SDS011;20582;52.196;20.952;2024-01-06T07:55:15;24.05;;;10.98;;
34317;SDS011;20582;52.196;20.952;2024-01-06T07:57:41;27.00;;;11.65;;
34317;SDS011;20582;52.196;20.952;2024-01-06T08:00:09;27.30;;;11.27;;
34317;SDS011;20582;52.196;20.952;2024-01-06T08:02:35;26.48;;;12.23;;
34317;SDS011;20582;52.196;20.952;2024-01-06T08:05:01;23.48;;;10.80;;
34317;SDS011;20582;52.196;20.952;2024-01-06T08:07:27;22.23;;;10.88;;
34317;SDS011;20582;52.196;20.952;2024-01-06T08:09:53;23.48;;;10.48;;
34317;SDS011;20582;52.196;20.952;2024-01-06T08:12:19;22.35;;;10.90;;
34317;SDS011;20582;52.196;20.952;2024-01-06T08:14:45;23.85;;;11.57;;
34317;SDS011;20582;52.196;20.952;2024-01-06T08:17:11;23.00;;;10.50;;
34317;SDS011;20582;52.196;20.952;2024-01-06T08:19:37;26.40;;;11.52;;
34317;SDS011;20582;52.196;20.952;2024-01-06T08:22:03;22.60;;;10.98;;
34317;SDS011;20582;52.196;20.952;2024-01-06T08:24:29;22.17;;;11.05;;
34317;SDS011;20582;52.196;20.952;2024-01-06T08:26:55;25.17;;;12.02;;
34317;SDS011;20582;52.196;20.952;2024-01-06T08:29:21;25.83;;;11.43;;
34317;SDS011;20582;52.196;20.952;2024-01-06T08:31:47;22.92;;;9.93;;
34317;SDS011;20582;52.196;20.952;2024-01-06T08:34:16;22.67;;;9.82;;
34317;SDS011;20582;52.196;20.952;2024-01-06T08:36:42;21.88;;;10.75;;
34317;SDS011;20582;52.196;20.952;2024-01-06T08:39:08;22.55;;;9.70;;
34317;SDS011;20582;52.196;20.952;2024-01-06T08:41:34;25.23;;;10.77;;
34317;SDS011;20582;52.196;20.952;2024-01-06T08:44:00;22.63;;;11.00;;
34317;SDS011;20582;52.196;20.952;2024-01-06T08:46:26;24.17;;;11.50;;
34317;SDS011;20582;52.196;20.952;2024-01-06T08:48:52;23.55;;;11.43;;
34317;SDS011;20582;52.196;20.952;2024-01-06T08:51:18;25.88;;;10.93;;
34317;SDS011;20582;52.196;20.952;2024-01-06T08:53:45;22.33;;;10.68;;
34317;SDS011;20582;52.196;20.952;2024-01-06T08:56:11;22.77;;;9.93;;
34317;SDS011;20582;52.196;20.952;2024-01-06T08:58:37;25.60;;;10.48;;
34317;SDS011;20582;52.196;20.952;2024-01-06T09:01:03;24.60;;;10.57;;
34317;SDS011;20582;52.196;20.952;2024-01-06T09:03:29;23.98;;;10.55;;
34317;SDS011;20582;52.196;20.952;2024-01-06T09:05:56;22.50;;;10.23;;
34317;SDS011;20582;52.196;20.952;2024-01-06T09:08:22;20.83;;;10.23;;
34317;SDS011;20582;52.196;20.952;2024-01-06T09:10:49;23.17;;;9.98;;
34317;SDS011;20582;52.196;20.952;2024-01-06T09:13:17;21.92;;;10.05;;
34317;SDS011;20582;52.196;20.952;2024-01-06T09:15:43;20.98;;;9.73;;
34317;SDS011;20582;52.196;20.952;2024-01-06T09:18:09;20.27;;;8.80;;
34317;SDS011;20582;52.196;20.952;2024-01-06T09:20:35;21.38;;;9.63;;
34317;SDS011;20582;52.196;20.952;2024-01-06T09:23:01;18.92;;;9.32;;
34317;SDS011;20582;52.196;20.952;2024-01-06T09:25:27;19.50;;;8.85;;
34317;SDS011;20582;52.196;20.952;2024-01-06T09:27:53;21.08;;;9.15;;
34317;SDS011;20582;52.196;20.952;2024-01-06T09:30:19;20.40;;;9.77;;
34317;SDS011;20582;52.196;20.952;2024-01-06T09:32:45;17.80;;;8.85;;
34317;SDS011;20582;52.196;20.952;2024-01-06T09:35:11;19.77;;;9.32;;
34317;SDS011;20582;52.196;20.952;2024-01-06T09:37:37;20.88;;;10.20;;
34317;SDS011;20582;52.196;20.952;2024-01-06T09:40:03;20.27;;;9.32;;
34317;SDS011;20582;52.196;20.952;2024-01-06T09:42:29;17.98;;;8.82;;
34317;SDS011;20582;52.196;20.952;2024-01-06T09:44:55;20.80;;;9.68;;
34317;SDS011;20582;52.196;20.952;2024-01-06T09:47:22;21.00;;;9.30;;
34317;SDS011;20582;52.196;20.952;2024-01-06T09:49:49;21.02;;;9.27;;
34317;SDS011;20582;52.196;20.952;2024-01-06T09:52:15;17.60;;;8.73;;
34317;SDS011;20582;52.196;20.952;2024-01-06T09:54:42;20.08;;;9.05;;
34317;SDS011;20582;52.196;20.952;2024-01-06T09:57:11;19.80;;;8.70;;
34317;SDS011;20582;52.196;20.952;2024-01-06T09:59:38;18.67;;;8.80;;
34317;SDS011;20582;52.196;20.952;2024-01-06T10:02:04;16.98;;;8.07;;
34317;SDS011;20582;52.196;20.952;2024-01-06T10:04:30;20.10;;;8.80;;
34317;SDS011;20582;52.196;20.952;2024-01-06T10:06:56;17.73;;;8.57;;
34317;SDS011;20582;52.196;20.952;2024-01-06T10:09:28;19.63;;;8.18;;
34317;SDS011;20582;52.196;20.952;2024-01-06T10:11:55;18.92;;;9.35;;
34317;SDS011;20582;52.196;20.952;2024-01-06T10:14:22;18.67;;;8.75;;
34317;SDS011;20582;52.196;20.952;2024-01-06T10:16:50;18.67;;;8.63;;
34317;SDS011;20582;52.196;20.952;2024-01-06T10:19:18;16.83;;;8.43;;
34317;SDS011;20582;52.196;20.952;2024-01-06T10:21:45;18.50;;;8.68;;
34317;SDS011;20582;52.196;20.952;2024-01-06T10:24:11;17.80;;;8.10;;
34317;SDS011;20582;52.196;20.952;2024-01-06T10:26:37;16.25;;;7.60;;
34317;SDS011;20582;52.196;20.952;2024-01-06T10:29:03;17.70;;;8.68;;
34317;SDS011;20582;52.196;20.952;2024-01-06T10:31:30;17.77;;;8.20;;
34317;SDS011;20582;52.196;20.952;2024-01-06T10:33:56;16.98;;;7.75;;
34317;SDS011;20582;52.196;20.952;2024-01-06T10:36:24;17.77;;;8.50;;
34317;SDS011;20582;52.196;20.952;2024-01-06T10:38:51;21.92;;;8.25;;
34317;SDS011;20582;52.196;20.952;2024-01-06T10:41:17;16.13;;;7.40;;
34317;SDS011;20582;52.196;20.952;2024-01-06T10:43:45;16.65;;;8.27;;
34317;SDS011;20582;52.196;20.952;2024-01-06T10:46:12;18.17;;;7.82;;
34317;SDS011;20582;52.196;20.952;2024-01-06T10:48:40;15.93;;;7.18;;
34317;SDS011;20582;52.196;20.952;2024-01-06T10:51:10;16.63;;;7.90;;
34317;SDS011;20582;52.196;20.952;2024-01-06T10:53:37;16.30;;;7.47;;
34317;SDS011;20582;52.196;20.952;2024-01-06T10:56:04;17.52;;;8.00;;
34317;SDS011;20582;52.196;20.952;2024-01-06T10:58:32;18.02;;;8.77;;
34317;SDS011;20582;52.196;20.952;2024-01-06T11:01:01;16.02;;;6.57;;
34317;SDS011;20582;52.196;20.952;2024-01-06T11:03:28;13.82;;;6.95;;
34317;SDS011;20582;52.196;20.952;2024-01-06T11:05:54;14.13;;;6.70;;
34317;SDS011;20582;52.196;20.952;2024-01-06T11:08:21;15.23;;;7.50;;
34317;SDS011;20582;52.196;20.952;2024-01-06T11:10:48;15.48;;;7.38;;
34317;SDS011;20582;52.196;20.952;2024-01-06T11:13:15;15.63;;;6.93;;
34317;SDS011;20582;52.196;20.952;2024-01-06T11:15:48;14.82;;;7.30;;
34317;SDS011;20582;52.196;20.952;2024-01-06T11:18:30;17.65;;;7.90;;
34317;SDS011;20582;52.196;20.952;2024-01-06T11:26:38;14.52;;;7.10;;
34317;SDS011;20582;52.196;20.952;2024-01-06T11:29:05;15.77;;;6.88;;
34317;SDS011;20582;52.196;20.952;2024-01-06T11:31:31;15.68;;;8.05;;
34317;SDS011;20582;52.196;20.952;2024-01-06T11:33:57;17.15;;;7.32;;
34317;SDS011;20582;52.196;20.952;2024-01-06T11:36:38;16.48;;;7.32;;
34317;SDS011;20582;52.196;20.952;2024-01-06T11:39:05;16.63;;;7.32;;
34317;SDS011;20582;52.196;20.952;2024-01-06T11:41:50;17.40;;;8.02;;
34317;SDS011;20582;52.196;20.952;2024-01-06T11:44:22;13.85;;;7.38;;
34317;SDS011;20582;52.196;20.952;2024-01-06T11:46:48;14.38;;;6.32;;
34317;SDS011;20582;52.196;20.952;2024-01-06T11:49:15;18.05;;;8.38;;
34317;SDS011;20582;52.196;20.952;2024-01-06T11:51:41;20.33;;;8.38;;
34317;SDS011;20582;52.196;20.952;2024-01-06T11:54:08;18.45;;;9.02;;
34317;SDS011;20582;52.196;20.952;2024-01-06T11:56:35;16.73;;;8.65;;
34317;SDS011;20582;52.196;20.952;2024-01-06T11:59:01;18.02;;;8.73;;
34317;SDS011;20582;52.196;20.952;2024-01-06T12:01:27;19.52;;;8.30;;
34317;SDS011;20582;52.196;20.952;2024-01-06T12:03:54;18.25;;;8.25;;
34317;SDS011;20582;52.196;20.952;2024-01-06T12:06:20;19.98;;;7.68;;
34317;SDS011;20582;52.196;20.952;2024-01-06T12:08:46;20.17;;;9.60;;
34317;SDS011;20582;52.196;20.952;2024-01-06T12:11:12;19.90;;;9.32;;
34317;SDS011;20582;52.196;20.952;2024-01-06T12:13:38;18.05;;;7.57;;
34317;SDS011;20582;52.196;20.952;2024-01-06T12:16:04;17.23;;;7.45;;
34317;SDS011;20582;52.196;20.952;2024-01-06T12:18:30;15.52;;;7.70;;
34317;SDS011;20582;52.196;20.952;2024-01-06T12:20:58;15.15;;;7.25;;
34317;SDS011;20582;52.196;20.952;2024-01-06T12:23:25;13.90;;;7.05;;
34317;SDS011;20582;52.196;20.952;2024-01-06T12:25:52;15.13;;;7.40;;
34317;SDS011;20582;52.196;20.952;2024-01-06T12:28:18;16.75;;;8.02;;
34317;SDS011;20582;52.196;20.952;2024-01-06T12:30:44;15.80;;;7.70;;
34317;SDS011;20582;52.196;20.952;2024-01-06T12:33:10;12.90;;;6.32;;
34317;SDS011;20582;52.196;20.952;2024-01-06T12:35:37;16.38;;;6.50;;
34317;SDS011;20582;52.196;20.952;2024-01-06T12:38:03;13.90;;;6.78;;
34317;SDS011;20582;52.196;20.952;2024-01-06T12:40:32;13.82;;;6.78;;
34317;SDS011;20582;52.196;20.952;2024-01-06T12:42:58;14.55;;;6.50;;
34317;SDS011;20582;52.196;20.952;2024-01-06T12:45:24;14.48;;;6.82;;
34317;SDS011;20582;52.196;20.952;2024-01-06T12:47:52;13.18;;;6.70;;
34317;SDS011;20582;52.196;20.952;2024-01-06T12:50:19;13.75;;;6.65;;
34317;SDS011;20582;52.196;20.952;2024-01-06T12:52:45;14.30;;;6.13;;
34317;SDS011;20582;52.196;20.952;2024-01-06T12:55:11;12.30;;;5.75;;
34317;SDS011;20582;52.196;20.952;2024-01-06T12:57:37;11.68;;;4.88;;
34317;SDS011;20582;52.196;20.952;2024-01-06T13:00:03;11.13;;;5.57;;
34317;SDS011;20582;52.196;20.952;2024-01-06T13:02:31;11.27;;;5.47;;
34317;SDS011;20582;52.196;20.952;2024-01-06T13:04:57;12.02;;;5.05;;
34317;SDS011;20582;52.196;20.952;2024-01-06T13:07:23;10.73;;;5.20;;
34317;SDS011;20582;52.196;20.952;2024-01-06T13:09:49;12.45;;;5.13;;
34317;SDS011;20582;52.196;20.952;2024-01-06T13:12:15;11.15;;;5.70;;
34317;SDS011;20582;52.196;20.952;2024-01-06T13:14:43;10.60;;;4.68;;
34317;SDS011;20582;52.196;20.952;2024-01-06T13:17:12;11.55;;;4.55;;
34317;SDS011;20582;52.196;20.952;2024-01-06T13:19:39;12.13;;;5.22;;
34317;SDS011;20582;52.196;20.952;2024-01-06T13:22:05;11.77;;;5.15;;
34317;SDS011;20582;52.196;20.952;2024-01-06T13:24:31;13.20;;;5.28;;
34317;SDS011;20582;52.196;20.952;2024-01-06T13:26:57;11.90;;;5.57;;
34317;SDS011;20582;52.196;20.952;2024-01-06T13:29:24;11.10;;;4.78;;
34317;SDS011;20582;52.196;20.952;2024-01-06T13:31:50;12.63;;;5.25;;
34317;SDS011;20582;52.196;20.952;2024-01-06T13:34:17;10.90;;;5.13;;
34317;SDS011;20582;52.196;20.952;2024-01-06T13:36:43;10.30;;;3.92;;
34317;SDS011;20582;52.196;20.952;2024-01-06T13:39:09;11.00;;;4.85;;
34317;SDS011;20582;52.196;20.952;2024-01-06T13:41:44;10.20;;;4.55;;
34317;SDS011;20582;52.196;20.952;2024-01-06T13:44:10;11.13;;;5.32;;
34317;SDS011;20582;52.196;20.952;2024-01-06T13:46:36;11.10;;;4.70;;
34317;SDS011;20582;52.196;20.952;2024-01-06T13:49:02;10.43;;;5.05;;
34317;SDS011;20582;52.196;20.952;2024-01-06T13:51:28;9.82;;;4.38;;
34317;SDS011;20582;52.196;20.952;2024-01-06T13:53:55;13.23;;;4.88;;
34317;SDS011;20582;52.196;20.952;2024-01-06T13:56:21;11.68;;;4.90;;
34317;SDS011;20582;52.196;20.952;2024-01-06T13:58:47;11.95;;;5.07;;
34317;SDS011;20582;52.196;20.952;2024-01-06T14:01:13;10.88;;;4.85;;
34317;SDS011;20582;52.196;20.952;2024-01-06T14:03:39;10.10;;;4.13;;
34317;SDS011;20582;52.196;20.952;2024-01-06T14:06:05;11.95;;;4.90;;
34317;SDS011;20582;52.196;20.952;2024-01-06T14:08:32;10.43;;;4.38;;
34317;SDS011;20582;52.196;20.952;2024-01-06T14:10:58;10.68;;;4.47;;
34317;SDS011;20582;52.196;20.952;2024-01-06T14:13:24;10.80;;;4.68;;
34317;SDS011;20582;52.196;20.952;2024-01-06T14:15:51;9.60;;;3.92;;
34317;SDS011;20582;52.196;20.952;2024-01-06T14:18:17;10.55;;;4.60;;
34317;SDS011;20582;52.196;20.952;2024-01-06T14:20:43;9.85;;;4.28;;